sensor_id;sensor_type;location;lat;lon;timestamp;P1;durP1;ratioP1;P2;durP2;ratioP2
17710;SDS011;8975;57.718;12.134;2022-12-18T00:01:33;19.30;;;0.00;;
17710;SDS011;8975;57.718;12.134;2022-12-18T00:04:00;19.37;;;0.00;;
17710;SDS011;8975;57.718;12.134;2022-12-18T00:06:28;18.80;;;0.00;;
17710;SDS011;8975;57.718;12.134;2022-12-18T00:08:55;20.97;;;0.00;;
17710;SDS011;8975;57.718;12.134;2022-12-18T00:11:23;18.10;;;0.00;;
17710;SDS011;8975;57.718;12.134;2022-12-18T00:13:50;20.00;;;0.00;;
17710;SDS011;8975;57.718;12.134;2022-12-18T00:16:19;16.43;;;0.00;;
17710;SDS011;8975;57.718;12.134;2022-12-18T00:18:47;17.67;;;0.00;;
17710;SDS011;8975;57.718;12.134;2022-12-18T00:21:14;18.33;;;0.00;;
17710;SDS011;8975;57.718;12.134;2022-12-18T00:23:41;19.73;;;0.00;;
17710;SDS011;8975;57.718;12.134;2022-12-18T00:26:10;19.77;;;0.00;;
17710;SDS011;8975;57.718;12.134;2022-12-18T00:28:40;20.87;;;0.00;;
17710;SDS011;8975;57.718;12.134;2022-12-18T00:31:07;18.90;;;0.00;;
17710;SDS011;8975;57.718;12.134;2022-12-18T00:33:34;15.13;;;0.00;;
17710;SDS011;8975;57.718;12.134;2022-12-18T00:36:03;17.73;;;0.00;;
17710;SDS011;8975;57.718;12.134;2022-12-18T00:38:29;13.60;;;0.00;;
17710;SDS011;8975;57.718;12.134;2022-12-18T00:40:55;12.53;;;0.00;;
17710;SDS011;8975;57.718;12.134;2022-12-18T00:43:20;12.43;;;0.00;;
17710;SDS011;8975;57.718;12.134;2022-12-18T00:45:46;10.93;;;0.00;;
17710;SDS011;8975;57.718;12.134;2022-12-18T00:48:11;11.03;;;0.00;;
17710;SDS011;8975;57.718;12.134;2022-12-18T00:50:36;10.27;;;0.00;;
17710;SDS011;8975;57.718;12.134;2022-12-18T00:53:02;10.53;;;0.00;;
17710;SDS011;8975;57.718;12.134;2022-12-18T00:55:27;11.17;;;0.00;;
17710;SDS011;8975;57.718;12.134;2022-12-18T00:57:53;10.63;;;0.00;;
17710;SDS011;8975;57.718;12.134;2022-12-18T01:00:18;8.93;;;0.00;;
17710;SDS011;8975;57.718;12.134;2022-12-18T01:02:43;9.23;;;0.00;;
17710;SDS011;8975;57.718;12.134;2022-12-18T01:05:10;7.27;;;0.00;;
17710;SDS011;8975;57.718;12.134;2022-12-18T01:07:37;8.60;;;0.00;;
17710;SDS011;8975;57.718;12.134;2022-12-18T01:10:02;10.03;;;0.00;;
17710;SDS011;8975;57.718;12.134;2022-12-18T01:12:29;8.27;;;0.00;;
17710;SDS011;8975;57.718;12.134;2022-12-18T01:14:54;6.27;;;0.00;;
17710;SDS011;8975;57.718;12.134;2022-12-18T01:17:20;5.40;;;0.00;;
17710;SDS011;8975;57.718;12.134;2022-12-18T01:19:45;8.60;;;0.00;;
17710;SDS011;8975;57.718;12.134;2022-12-18T01:22:10;6.57;;;0.00;;
17710;SDS011;8975;57.718;12.134;2022-12-18T01:24:36;5.23;;;0.00;;
17710;SDS011;8975;57.718;12.134;2022-12-18T01:27:01;7.23;;;0.00;;
17710;SDS011;8975;57.718;12.134;2022-12-18T01:29:27;7.27;;;0.00;;
17710;SDS011;8975;57.718;12.134;2022-12-18T01:31:54;6.37;;;0.00;;
17710;SDS011;8975;57.718;12.134;2022-12-18T01:34:20;6.17;;;0.00;;
17710;SDS011;8975;57.718;12.134;2022-12-18T01:36:46;6.97;;;0.00;;
17710;SDS011;8975;57.718;12.134;2022-12-18T01:39:12;6.40;;;0.00;;
17710;SDS011;8975;57.718;12.134;2022-12-18T01:41:39;7.07;;;0.00;;
17710;SDS011;8975;57.718;12.134;2022-12-18T01:47:28;7.80;;;0.00;;
17710;SDS011;8975;57.718;12.134;2022-12-18T01:49:59;9.87;;;0.00;;
17710;SDS011;8975;57.718;12.134;2022-12-18T01:53:06;7.73;;;0.00;;
17710;SDS011;8975;57.718;12.134;2022-12-18T01:55:46;9.30;;;0.00;;
17710;SDS011;8975;57.718;12.134;2022-12-18T01:58:17;8.63;;;0.00;;
17710;SDS011;8975;57.718;12.134;2022-12-18T02:00:43;8.10;;;0.00;;
17710;SDS011;8975;57.718;12.134;2022-12-18T02:03:09;6.90;;;0.00;;
17710;SDS011;8975;57.718;12.134;2022-12-18T02:05:44;6.63;;;0.00;;
17710;SDS011;8975;57.718;12.134;2022-12-18T02:11:11;5.87;;;0.00;;
17710;SDS011;8975;57.718;12.134;2022-12-18T02:18:57;6.03;;;0.00;;
17710;SDS011;8975;57.718;12.134;2022-12-18T02:21:52;4.40;;;0.00;;
17710;SDS011;8975;57.718;12.134;2022-12-18T02:27:25;6.47;;;0.00;;
17710;SDS011;8975;57.718;12.134;2022-12-18T02:29:53;8.90;;;0.00;;
17710;SDS011;8975;57.718;12.134;2022-12-18T02:32:31;7.97;;;0.00;;
17710;SDS011;8975;57.718;12.134;2022-12-18T02:35:02;7.50;;;0.00;;
17710;SDS011;8975;57.718;12.134;2022-12-18T02:37:30;10.67;;;0.00;;
17710;SDS011;8975;57.718;12.134;2022-12-18T02:39:58;9.47;;;0.00;;
17710;SDS011;8975;57.718;12.134;2022-12-18T02:42:25;12.77;;;0.00;;
17710;SDS011;8975;57.718;12.134;2022-12-18T02:44:52;9.87;;;0.00;;
17710;SDS011;8975;57.718;12.134;2022-12-18T02:47:19;10.93;;;0.00;;
17710;SDS011;8975;57.718;12.134;2022-12-18T02:57:54;11.83;;;0.00;;
17710;SDS011;8975;57.718;12.134;2022-12-18T03:00:23;11.47;;;0.00;;
17710;SDS011;8975;57.718;12.134;2022-12-18T03:03:26;12.50;;;0.00;;
17710;SDS011;8975;57.718;12.134;2022-12-18T03:05:53;12.13;;;0.00;;
17710;SDS011;8975;57.718;12.134;2022-12-18T03:08:26;12.00;;;0.00;;
17710;SDS011;8975;57.718;12.134;2022-12-18T03:11:04;11.23;;;0.00;;
17710;SDS011;8975;57.718;12.134;2022-12-18T03:13:40;11.30;;;0.00;;
17710;SDS011;8975;57.718;12.134;2022-12-18T03:16:10;12.17;;;0.00;;
17710;SDS011;8975;57.718;12.134;2022-12-18T03:18:45;14.50;;;0.00;;
17710;SDS011;8975;57.718;12.134;2022-12-18T03:21:15;12.63;;;0.00;;
17710;SDS011;8975;57.718;12.134;2022-12-18T03:23:44;11.07;;;0.00;;
17710;SDS011;8975;57.718;12.134;2022-12-18T03:26:20;11.80;;;0.00;;
17710;SDS011;8975;57.718;12.134;2022-12-18T03:28:51;14.90;;;0.00;;
17710;SDS011;8975;57.718;12.134;2022-12-18T03:31:20;12.23;;;0.00;;
17710;SDS011;8975;57.718;12.134;2022-12-18T03:33:52;13.13;;;0.00;;
17710;SDS011;8975;57.718;12.134;2022-12-18T03:36:19;13.50;;;0.00;;
17710;SDS011;8975;57.718;12.134;2022-12-18T03:38:44;12.47;;;0.00;;
17710;SDS011;8975;57.718;12.134;2022-12-18T03:46:26;12.97;;;0.00;;
17710;SDS011;8975;57.718;12.134;2022-12-18T03:48:58;13.87;;;0.00;;
17710;SDS011;8975;57.718;12.134;2022-12-18T03:51:40;14.23;;;0.00;;
17710;SDS011;8975;57.718;12.134;2022-12-18T03:54:11;11.30;;;0.00;;
17710;SDS011;8975;57.718;12.134;2022-12-18T03:56:42;14.80;;;0.00;;
17710;SDS011;8975;57.718;12.134;2022-12-18T03:59:12;15.70;;;0.00;;
17710;SDS011;8975;57.718;12.134;2022-12-18T04:01:41;14.97;;;0.00;;
17710;SDS011;8975;57.718;12.134;2022-12-18T04:04:11;12.20;;;0.00;;
17710;SDS011;8975;57.718;12.134;2022-12-18T04:06:38;15.07;;;0.00;;
17710;SDS011;8975;57.718;12.134;2022-12-18T04:09:05;15.47;;;0.00;;
17710;SDS011;8975;57.718;12.134;2022-12-18T04:11:31;14.50;;;0.00;;
17710;SDS011;8975;57.718;12.134;2022-12-18T04:13:57;14.30;;;0.00;;
17710;SDS011;8975;57.718;12.134;2022-12-18T04:16:23;16.33;;;0.00;;
17710;SDS011;8975;57.718;12.134;2022-12-18T04:18:49;14.30;;;0.00;;
17710;SDS011;8975;57.718;12.134;2022-12-18T04:21:15;13.03;;;0.00;;
17710;SDS011;8975;57.718;12.134;2022-12-18T04:23:40;13.13;;;0.00;;
17710;SDS011;8975;57.718;12.134;2022-12-18T04:26:06;14.30;;;0.00;;
17710;SDS011;8975;57.718;12.134;2022-12-18T04:28:31;18.47;;;0.00;;
17710;SDS011;8975;57.718;12.134;2022-12-18T04:30:57;13.53;;;0.00;;
17710;SDS011;8975;57.718;12.134;2022-12-18T04:33:22;16.07;;;0.00;;
17710;SDS011;8975;57.718;12.134;2022-12-18T04:35:47;17.13;;;0.00;;
17710;SDS011;8975;57.718;12.134;2022-12-18T04:38:13;16.20;;;0.00;;
17710;SDS011;8975;57.718;12.134;2022-12-18T04:40:38;13.07;;;0.00;;
17710;SDS011;8975;57.718;12.134;2022-12-18T04:43:04;16.33;;;0.00;;
17710;SDS011;8975;57.718;12.134;2022-12-18T04:45:30;15.63;;;0.00;;
17710;SDS011;8975;57.718;12.134;2022-12-18T04:47:59;13.60;;;0.00;;
17710;SDS011;8975;57.718;12.134;2022-12-18T04:50:25;14.53;;;0.00;;
17710;SDS011;8975;57.718;12.134;2022-12-18T04:52:50;16.93;;;0.00;;
17710;SDS011;8975;57.718;12.134;2022-12-18T04:55:16;12.90;;;0.00;;
17710;SDS011;8975;57.718;12.134;2022-12-18T04:57:41;11.53;;;0.00;;
17710;SDS011;8975;57.718;12.134;2022-12-18T05:00:07;14.43;;;0.00;;
17710;SDS011;8975;57.718;12.134;2022-12-18T05:02:32;13.03;;;0.00;;
17710;SDS011;8975;57.718;12.134;2022-12-18T05:04:58;15.47;;;0.00;;
17710;SDS011;8975;57.718;12.134;2022-12-18T05:07:23;11.03;;;0.00;;
17710;SDS011;8975;57.718;12.134;2022-12-18T05:09:49;13.43;;;0.00;;
17710;SDS011;8975;57.718;12.134;2022-12-18T05:12:14;10.17;;;0.00;;
17710;SDS011;8975;57.718;12.134;2022-12-18T05:14:40;9.23;;;0.00;;
17710;SDS011;8975;57.718;12.134;2022-12-18T05:17:05;10.47;;;0.00;;
17710;SDS011;8975;57.718;12.134;2022-12-18T05:19:30;11.67;;;0.00;;
17710;SDS011;8975;57.718;12.134;2022-12-18T05:21:56;13.47;;;0.00;;
17710;SDS011;8975;57.718;12.134;2022-12-18T05:24:21;9.83;;;0.00;;
17710;SDS011;8975;57.718;12.134;2022-12-18T05:26:47;10.87;;;0.00;;
17710;SDS011;8975;57.718;12.134;2022-12-18T05:29:12;9.50;;;0.00;;
17710;SDS011;8975;57.718;12.134;2022-12-18T05:31:38;8.03;;;0.00;;
17710;SDS011;8975;57.718;12.134;2022-12-18T05:34:03;8.03;;;0.00;;
17710;SDS011;8975;57.718;12.134;2022-12-18T05:36:29;9.73;;;0.00;;
17710;SDS011;8975;57.718;12.134;2022-12-18T05:38:55;10.03;;;0.00;;
17710;SDS011;8975;57.718;12.134;2022-12-18T05:41:20;9.10;;;0.00;;
17710;SDS011;8975;57.718;12.134;2022-12-18T05:43:46;14.57;;;0.00;;
17710;SDS011;8975;57.718;12.134;2022-12-18T05:46:12;7.30;;;0.00;;
17710;SDS011;8975;57.718;12.134;2022-12-18T05:48:39;9.47;;;0.00;;
17710;SDS011;8975;57.718;12.134;2022-12-18T05:51:06;10.80;;;0.00;;
17710;SDS011;8975;57.718;12.134;2022-12-18T05:53:34;6.83;;;0.00;;
17710;SDS011;8975;57.718;12.134;2022-12-18T05:56:03;10.03;;;0.00;;
17710;SDS011;8975;57.718;12.134;2022-12-18T05:58:30;6.77;;;0.00;;
17710;SDS011;8975;57.718;12.134;2022-12-18T06:00:56;7.33;;;0.00;;
17710;SDS011;8975;57.718;12.134;2022-12-18T06:03:22;5.77;;;0.00;;
17710;SDS011;8975;57.718;12.134;2022-12-18T06:05:47;5.27;;;0.00;;
17710;SDS011;8975;57.718;12.134;2022-12-18T06:08:13;8.77;;;0.00;;
17710;SDS011;8975;57.718;12.134;2022-12-18T06:10:39;6.33;;;0.00;;
17710;SDS011;8975;57.718;12.134;2022-12-18T06:13:05;5.20;;;0.00;;
17710;SDS011;8975;57.718;12.134;2022-12-18T06:15:31;6.10;;;0.00;;
17710;SDS011;8975;57.718;12.134;2022-12-18T06:17:57;6.43;;;0.00;;
17710;SDS011;8975;57.718;12.134;2022-12-18T06:20:22;8.17;;;0.00;;
17710;SDS011;8975;57.718;12.134;2022-12-18T06:22:48;5.90;;;0.00;;
17710;SDS011;8975;57.718;12.134;2022-12-18T06:25:13;6.47;;;0.00;;
17710;SDS011;8975;57.718;12.134;2022-12-18T06:27:39;5.90;;;0.00;;
17710;SDS011;8975;57.718;12.134;2022-12-18T06:30:04;8.83;;;0.00;;
17710;SDS011;8975;57.718;12.134;2022-12-18T06:32:30;7.07;;;0.00;;
17710;SDS011;8975;57.718;12.134;2022-12-18T06:34:56;6.50;;;0.00;;
17710;SDS011;8975;57.718;12.134;2022-12-18T06:37:21;4.57;;;0.00;;
17710;SDS011;8975;57.718;12.134;2022-12-18T06:39:51;5.63;;;0.00;;
17710;SDS011;8975;57.718;12.134;2022-12-18T06:42:17;5.43;;;0.00;;
17710;SDS011;8975;57.718;12.134;2022-12-18T06:44:42;7.67;;;0.00;;
17710;SDS011;8975;57.718;12.134;2022-12-18T06:47:08;4.30;;;0.00;;
17710;SDS011;8975;57.718;12.134;2022-12-18T06:49:33;7.33;;;0.00;;
17710;SDS011;8975;57.718;12.134;2022-12-18T06:51:58;7.93;;;0.00;;
17710;SDS011;8975;57.718;12.134;2022-12-18T06:54:24;6.10;;;0.00;;
17710;SDS011;8975;57.718;12.134;2022-12-18T06:56:49;6.80;;;0.00;;
17710;SDS011;8975;57.718;12.134;2022-12-18T06:59:14;5.67;;;0.00;;
17710;SDS011;8975;57.718;12.134;2022-12-18T07:01:40;7.60;;;0.00;;
17710;SDS011;8975;57.718;12.134;2022-12-18T07:04:05;7.73;;;0.00;;
17710;SDS011;8975;57.718;12.134;2022-12-18T07:06:31;9.93;;;0.00;;
17710;SDS011;8975;57.718;12.134;2022-12-18T07:08:56;6.63;;;0.00;;
17710;SDS011;8975;57.718;12.134;2022-12-18T07:11:22;6.10;;;0.00;;
17710;SDS011;8975;57.718;12.134;2022-12-18T07:13:47;6.70;;;0.00;;
17710;SDS011;8975;57.718;12.134;2022-12-18T07:18:42;4.63;;;0.00;;
17710;SDS011;8975;57.718;12.134;2022-12-18T07:21:09;5.83;;;0.00;;
17710;SDS011;8975;57.718;12.134;2022-12-18T07:23:36;5.87;;;0.00;;
17710;SDS011;8975;57.718;12.134;2022-12-18T07:26:06;7.03;;;0.00;;
17710;SDS011;8975;57.718;12.134;2022-12-18T07:28:33;6.87;;;0.00;;
17710;SDS011;8975;57.718;12.134;2022-12-18T07:31:03;6.13;;;0.00;;
17710;SDS011;8975;57.718;12.134;2022-12-18T07:33:34;5.03;;;0.00;;
17710;SDS011;8975;57.718;12.134;2022-12-18T07:36:00;6.17;;;0.00;;
17710;SDS011;8975;57.718;12.134;2022-12-18T07:38:28;6.17;;;0.00;;
17710;SDS011;8975;57.718;12.134;2022-12-18T07:40:53;7.17;;;0.00;;
17710;SDS011;8975;57.718;12.134;2022-12-18T07:43:19;5.10;;;0.00;;
17710;SDS011;8975;57.718;12.134;2022-12-18T07:45:44;5.03;;;0.00;;
17710;SDS011;8975;57.718;12.134;2022-12-18T07:48:09;6.73;;;0.00;;
17710;SDS011;8975;57.718;12.134;2022-12-18T07:50:35;5.57;;;0.00;;
17710;SDS011;8975;57.718;12.134;2022-12-18T07:53:01;7.17;;;0.00;;
17710;SDS011;8975;57.718;12.134;2022-12-18T07:55:29;3.77;;;0.00;;
17710;SDS011;8975;57.718;12.134;2022-12-18T07:57:56;5.93;;;0.00;;
17710;SDS011;8975;57.718;12.134;2022-12-18T08:00:21;5.20;;;0.00;;
17710;SDS011;8975;57.718;12.134;2022-12-18T08:02:47;6.63;;;0.00;;
17710;SDS011;8975;57.718;12.134;2022-12-18T08:05:12;3.53;;;0.00;;
17710;SDS011;8975;57.718;12.134;2022-12-18T08:07:38;4.00;;;0.00;;
17710;SDS011;8975;57.718;12.134;2022-12-18T08:10:04;7.93;;;0.00;;
17710;SDS011;8975;57.718;12.134;2022-12-18T08:12:30;4.87;;;0.00;;
17710;SDS011;8975;57.718;12.134;2022-12-18T08:14:56;6.20;;;0.00;;
17710;SDS011;8975;57.718;12.134;2022-12-18T08:17:21;7.70;;;0.00;;
17710;SDS011;8975;57.718;12.134;2022-12-18T08:19:47;4.80;;;0.00;;
17710;SDS011;8975;57.718;12.134;2022-12-18T08:22:12;7.53;;;0.00;;
17710;SDS011;8975;57.718;12.134;2022-12-18T08:24:37;5.53;;;0.00;;
17710;SDS011;8975;57.718;12.134;2022-12-18T08:27:03;8.30;;;0.00;;
17710;SDS011;8975;57.718;12.134;2022-12-18T08:29:28;4.00;;;0.00;;
17710;SDS011;8975;57.718;12.134;2022-12-18T08:31:55;9.00;;;0.00;;
17710;SDS011;8975;57.718;12.134;2022-12-18T08:34:20;4.40;;;0.00;;
17710;SDS011;8975;57.718;12.134;2022-12-18T08:36:46;3.47;;;0.00;;
17710;SDS011;8975;57.718;12.134;2022-12-18T08:39:11;5.07;;;0.00;;
17710;SDS011;8975;57.718;12.134;2022-12-18T08:41:37;5.93;;;0.00;;
17710;SDS011;8975;57.718;12.134;2022-12-18T08:44:02;5.17;;;0.00;;
17710;SDS011;8975;57.718;12.134;2022-12-18T08:46:46;3.47;;;0.00;;
17710;SDS011;8975;57.718;12.134;2022-12-18T08:49:11;4.37;;;0.00;;
17710;SDS011;8975;57.718;12.134;2022-12-18T08:51:37;5.27;;;0.00;;
17710;SDS011;8975;57.718;12.134;2022-12-18T08:54:03;4.60;;;0.00;;
17710;SDS011;8975;57.718;12.134;2022-12-18T08:56:29;7.97;;;0.00;;
17710;SDS011;8975;57.718;12.134;2022-12-18T08:58:55;9.57;;;0.00;;
17710;SDS011;8975;57.718;12.134;2022-12-18T09:01:21;8.17;;;0.00;;
17710;SDS011;8975;57.718;12.134;2022-12-18T09:03:47;5.20;;;0.00;;
17710;SDS011;8975;57.718;12.134;2022-12-18T09:06:15;5.20;;;0.00;;
17710;SDS011;8975;57.718;12.134;2022-12-18T09:08:42;5.87;;;0.00;;
17710;SDS011;8975;57.718;12.134;2022-12-18T09:11:21;7.27;;;0.00;;
17710;SDS011;8975;57.718;12.134;2022-12-18T09:13:48;6.47;;;0.00;;
17710;SDS011;8975;57.718;12.134;2022-12-18T09:16:14;4.83;;;0.00;;
17710;SDS011;8975;57.718;12.134;2022-12-18T09:18:40;6.50;;;0.00;;
17710;SDS011;8975;57.718;12.134;2022-12-18T09:21:08;6.30;;;0.00;;
17710;SDS011;8975;57.718;12.134;2022-12-18T09:23:34;6.80;;;0.00;;
17710;SDS011;8975;57.718;12.134;2022-12-18T09:26:00;6.37;;;0.00;;
17710;SDS011;8975;57.718;12.134;2022-12-18T09:28:25;6.10;;;0.00;;
17710;SDS011;8975;57.718;12.134;2022-12-18T09:30:51;6.53;;;0.00;;
17710;SDS011;8975;57.718;12.134;2022-12-18T09:33:16;4.60;;;0.00;;
17710;SDS011;8975;57.718;12.134;2022-12-18T09:35:43;6.07;;;0.00;;
17710;SDS011;8975;57.718;12.134;2022-12-18T09:38:16;4.53;;;0.00;;
17710;SDS011;8975;57.718;12.134;2022-12-18T09:40:52;5.53;;;0.00;;
17710;SDS011;8975;57.718;12.134;2022-12-18T09:43:28;7.57;;;0.00;;
17710;SDS011;8975;57.718;12.134;2022-12-18T09:46:05;4.33;;;0.00;;
17710;SDS011;8975;57.718;12.134;2022-12-18T09:48:41;4.97;;;0.00;;
17710;SDS011;8975;57.718;12.134;2022-12-18T09:51:15;4.30;;;0.00;;
17710;SDS011;8975;57.718;12.134;2022-12-18T09:53:47;5.17;;;0.00;;
17710;SDS011;8975;57.718;12.134;2022-12-18T09:56:19;4.90;;;0.00;;
17710;SDS011;8975;57.718;12.134;2022-12-18T09:59:00;4.67;;;0.00;;
17710;SDS011;8975;57.718;12.134;2022-12-18T10:01:28;7.20;;;0.00;;
17710;SDS011;8975;57.718;12.134;2022-12-18T10:03:55;5.57;;;0.00;;
17710;SDS011;8975;57.718;12.134;2022-12-18T10:06:26;5.37;;;0.00;;
17710;SDS011;8975;57.718;12.134;2022-12-18T10:14:03;5.30;;;0.00;;
17710;SDS011;8975;57.718;12.134;2022-12-18T10:16:42;5.07;;;0.00;;
17710;SDS011;8975;57.718;12.134;2022-12-18T10:19:34;5.10;;;0.00;;
17710;SDS011;8975;57.718;12.134;2022-12-18T10:22:15;5.30;;;0.00;;
17710;SDS011;8975;57.718;12.134;2022-12-18T10:27:24;5.17;;;0.00;;
17710;SDS011;8975;57.718;12.134;2022-12-18T10:29:52;6.60;;;0.00;;
17710;SDS011;8975;57.718;12.134;2022-12-18T10:32:25;5.57;;;0.00;;
17710;SDS011;8975;57.718;12.134;2022-12-18T10:34:53;4.93;;;0.00;;
17710;SDS011;8975;57.718;12.134;2022-12-18T10:37:21;3.13;;;0.00;;
17710;SDS011;8975;57.718;12.134;2022-12-18T10:40:06;3.83;;;0.00;;
17710;SDS011;8975;57.718;12.134;2022-12-18T10:42:32;5.33;;;0.00;;
17710;SDS011;8975;57.718;12.134;2022-12-18T10:45:03;5.33;;;0.00;;
17710;SDS011;8975;57.718;12.134;2022-12-18T10:47:46;3.23;;;0.00;;
17710;SDS011;8975;57.718;12.134;2022-12-18T10:50:24;6.33;;;0.00;;
17710;SDS011;8975;57.718;12.134;2022-12-18T10:53:01;4.07;;;0.00;;
17710;SDS011;8975;57.718;12.134;2022-12-18T10:55:35;5.23;;;0.00;;
17710;SDS011;8975;57.718;12.134;2022-12-18T11:03:46;4.27;;;0.00;;
17710;SDS011;8975;57.718;12.134;2022-12-18T11:06:24;4.70;;;0.00;;
17710;SDS011;8975;57.718;12.134;2022-12-18T11:08:57;4.67;;;0.00;;
17710;SDS011;8975;57.718;12.134;2022-12-18T11:11:25;4.97;;;0.00;;
17710;SDS011;8975;57.718;12.134;2022-12-18T11:16:19;6.23;;;0.00;;
17710;SDS011;8975;57.718;12.134;2022-12-18T11:18:45;3.10;;;0.00;;
17710;SDS011;8975;57.718;12.134;2022-12-18T11:21:11;6.63;;;0.00;;
17710;SDS011;8975;57.718;12.134;2022-12-18T11:23:52;4.17;;;0.00;;
17710;SDS011;8975;57.718;12.134;2022-12-18T11:26:18;6.80;;;0.00;;
17710;SDS011;8975;57.718;12.134;2022-12-18T11:31:32;4.53;;;0.00;;
17710;SDS011;8975;57.718;12.134;2022-12-18T11:36:49;5.07;;;0.00;;
17710;SDS011;8975;57.718;12.134;2022-12-18T11:39:20;6.20;;;0.00;;
17710;SDS011;8975;57.718;12.134;2022-12-18T11:41:56;5.70;;;0.00;;
17710;SDS011;8975;57.718;12.134;2022-12-18T11:44:38;5.47;;;0.00;;
17710;SDS011;8975;57.718;12.134;2022-12-18T11:50:12;4.20;;;0.00;;
17710;SDS011;8975;57.718;12.134;2022-12-18T11:52:42;3.10;;;0.00;;
17710;SDS011;8975;57.718;12.134;2022-12-18T11:55:12;3.63;;;0.00;;
17710;SDS011;8975;57.718;12.134;2022-12-18T12:00:56;4.57;;;0.00;;
17710;SDS011;8975;57.718;12.134;2022-12-18T12:03:47;6.13;;;0.00;;
17710;SDS011;8975;57.718;12.134;2022-12-18T12:06:41;2.40;;;0.00;;
17710;SDS011;8975;57.718;12.134;2022-12-18T12:14:28;4.07;;;0.00;;
17710;SDS011;8975;57.718;12.134;2022-12-18T12:17:12;4.07;;;0.00;;
17710;SDS011;8975;57.718;12.134;2022-12-18T12:20:30;4.93;;;0.00;;
17710;SDS011;8975;57.718;12.134;2022-12-18T12:23:20;5.60;;;0.00;;
17710;SDS011;8975;57.718;12.134;2022-12-18T12:25:40;5.37;;;0.00;;
17710;SDS011;8975;57.718;12.134;2022-12-18T12:30:52;5.23;;;0.00;;
17710;SDS011;8975;57.718;12.134;2022-12-18T12:33:25;5.40;;;0.00;;
17710;SDS011;8975;57.718;12.134;2022-12-18T12:39:04;4.70;;;0.00;;
17710;SDS011;8975;57.718;12.134;2022-12-18T12:41:23;2.97;;;0.00;;
17710;SDS011;8975;57.718;12.134;2022-12-18T12:44:16;3.40;;;0.00;;
17710;SDS011;8975;57.718;12.134;2022-12-18T12:46:47;4.50;;;0.00;;
17710;SDS011;8975;57.718;12.134;2022-12-18T12:49:15;7.03;;;0.00;;
17710;SDS011;8975;57.718;12.134;2022-12-18T12:51:44;6.10;;;0.00;;
17710;SDS011;8975;57.718;12.134;2022-12-18T12:54:19;5.67;;;0.00;;
17710;SDS011;8975;57.718;12.134;2022-12-18T12:56:50;4.63;;;0.00;;
17710;SDS011;8975;57.718;12.134;2022-12-18T13:07:51;6.80;;;0.00;;
17710;SDS011;8975;57.718;12.134;2022-12-18T13:20:35;3.00;;;0.00;;
17710;SDS011;8975;57.718;12.134;2022-12-18T13:28:18;8.20;;;0.00;;
17710;SDS011;8975;57.718;12.134;2022-12-18T13:30:57;3.87;;;0.00;;
17710;SDS011;8975;57.718;12.134;2022-12-18T13:36:31;4.37;;;0.00;;
17710;SDS011;8975;57.718;12.134;2022-12-18T13:38:39;3.60;;;0.00;;
17710;SDS011;8975;57.718;12.134;2022-12-18T13:43:46;4.73;;;0.00;;
17710;SDS011;8975;57.718;12.134;2022-12-18T13:46:30;4.90;;;0.00;;
17710;SDS011;8975;57.718;12.134;2022-12-18T13:51:39;4.10;;;0.00;;
17710;SDS011;8975;57.718;12.134;2022-12-18T13:59:55;2.40;;;0.00;;
17710;SDS011;8975;57.718;12.134;2022-12-18T14:02:23;3.57;;;0.00;;
17710;SDS011;8975;57.718;12.134;2022-12-18T14:04:53;3.13;;;0.00;;
17710;SDS011;8975;57.718;12.134;2022-12-18T14:07:20;5.53;;;0.00;;
17710;SDS011;8975;57.718;12.134;2022-12-18T14:10:00;4.10;;;0.00;;
17710;SDS011;8975;57.718;12.134;2022-12-18T14:12:31;4.60;;;0.00;;
17710;SDS011;8975;57.718;12.134;2022-12-18T14:17:50;4.03;;;0.00;;
17710;SDS011;8975;57.718;12.134;2022-12-18T14:20:18;4.47;;;0.00;;
17710;SDS011;8975;57.718;12.134;2022-12-18T14:22:48;3.83;;;0.00;;
17710;SDS011;8975;57.718;12.134;2022-12-18T14:25:21;5.43;;;0.00;;
17710;SDS011;8975;57.718;12.134;2022-12-18T14:30:36;3.03;;;0.00;;
17710;SDS011;8975;57.718;12.134;2022-12-18T14:38:27;4.50;;;0.00;;
17710;SDS011;8975;57.718;12.134;2022-12-18T14:40:53;5.57;;;0.00;;
17710;SDS011;8975;57.718;12.134;2022-12-18T14:43:21;4.93;;;0.00;;
17710;SDS011;8975;57.718;12.134;2022-12-18T14:45:46;5.67;;;0.00;;
17710;SDS011;8975;57.718;12.134;2022-12-18T14:48:32;6.40;;;0.00;;
17710;SDS011;8975;57.718;12.134;2022-12-18T14:51:00;4.90;;;0.00;;
17710;SDS011;8975;57.718;12.134;2022-12-18T14:53:30;5.07;;;0.00;;
17710;SDS011;8975;57.718;12.134;2022-12-18T14:55:58;4.97;;;0.00;;
17710;SDS011;8975;57.718;12.134;2022-12-18T14:58:25;9.00;;;0.00;;
17710;SDS011;8975;57.718;12.134;2022-12-18T15:00:50;7.67;;;0.00;;
17710;SDS011;8975;57.718;12.134;2022-12-18T15:03:20;5.53;;;0.00;;
17710;SDS011;8975;57.718;12.134;2022-12-18T15:05:46;6.40;;;0.00;;
17710;SDS011;8975;57.718;12.134;2022-12-18T15:08:29;10.40;;;0.00;;
17710;SDS011;8975;57.718;12.134;2022-12-18T15:10:59;8.73;;;0.00;;
17710;SDS011;8975;57.718;12.134;2022-12-18T15:13:24;8.47;;;0.00;;
17710;SDS011;8975;57.718;12.134;2022-12-18T15:15:50;8.67;;;0.00;;
17710;SDS011;8975;57.718;12.134;2022-12-18T15:18:18;11.13;;;0.00;;
17710;SDS011;8975;57.718;12.134;2022-12-18T15:23:27;9.17;;;0.00;;
17710;SDS011;8975;57.718;12.134;2022-12-18T15:26:06;9.47;;;0.00;;
17710;SDS011;8975;57.718;12.134;2022-12-18T15:28:43;10.07;;;0.00;;
17710;SDS011;8975;57.718;12.134;2022-12-18T15:33:35;11.07;;;0.00;;
17710;SDS011;8975;57.718;12.134;2022-12-18T15:36:04;16.17;;;0.00;;
17710;SDS011;8975;57.718;12.134;2022-12-18T15:38:33;14.83;;;0.00;;
17710;SDS011;8975;57.718;12.134;2022-12-18T15:40:59;13.87;;;0.00;;
17710;SDS011;8975;57.718;12.134;2022-12-18T15:43:25;17.23;;;0.00;;
17710;SDS011;8975;57.718;12.134;2022-12-18T15:45:58;19.60;;;0.00;;
17710;SDS011;8975;57.718;12.134;2022-12-18T15:48:24;18.87;;;0.00;;
17710;SDS011;8975;57.718;12.134;2022-12-18T15:50:50;17.37;;;0.00;;
17710;SDS011;8975;57.718;12.134;2022-12-18T15:53:17;17.97;;;0.00;;
17710;SDS011;8975;57.718;12.134;2022-12-18T15:55:43;18.67;;;0.00;;
17710;SDS011;8975;57.718;12.134;2022-12-18T15:58:27;20.90;;;0.00;;
17710;SDS011;8975;57.718;12.134;2022-12-18T16:00:52;18.20;;;0.00;;
17710;SDS011;8975;57.718;12.134;2022-12-18T16:03:21;20.73;;;0.00;;
17710;SDS011;8975;57.718;12.134;2022-12-18T16:05:46;19.77;;;0.00;;
17710;SDS011;8975;57.718;12.134;2022-12-18T16:08:12;19.63;;;0.00;;
17710;SDS011;8975;57.718;12.134;2022-12-18T16:10:37;21.40;;;0.00;;
17710;SDS011;8975;57.718;12.134;2022-12-18T16:13:03;19.70;;;0.00;;
17710;SDS011;8975;57.718;12.134;2022-12-18T16:15:28;18.30;;;0.00;;
17710;SDS011;8975;57.718;12.134;2022-12-18T16:17:53;18.07;;;0.00;;
17710;SDS011;8975;57.718;12.134;2022-12-18T16:20:20;20.17;;;0.00;;
17710;SDS011;8975;57.718;12.134;2022-12-18T16:22:46;18.80;;;0.00;;
17710;SDS011;8975;57.718;12.134;2022-12-18T16:25:16;22.33;;;0.00;;
17710;SDS011;8975;57.718;12.134;2022-12-18T16:27:42;21.33;;;0.00;;
17710;SDS011;8975;57.718;12.134;2022-12-18T16:30:11;21.67;;;0.00;;
17710;SDS011;8975;57.718;12.134;2022-12-18T16:32:40;18.50;;;0.00;;
17710;SDS011;8975;57.718;12.134;2022-12-18T16:35:08;20.40;;;0.00;;
17710;SDS011;8975;57.718;12.134;2022-12-18T16:37:34;22.10;;;0.00;;
17710;SDS011;8975;57.718;12.134;2022-12-18T16:40:00;20.63;;;0.00;;
17710;SDS011;8975;57.718;12.134;2022-12-18T16:42:25;19.63;;;0.00;;
17710;SDS011;8975;57.718;12.134;2022-12-18T16:44:51;20.87;;;0.00;;
17710;SDS011;8975;57.718;12.134;2022-12-18T16:47:18;20.50;;;0.00;;
17710;SDS011;8975;57.718;12.134;2022-12-18T16:49:44;24.63;;;0.00;;
17710;SDS011;8975;57.718;12.134;2022-12-18T16:52:10;18.93;;;0.00;;
17710;SDS011;8975;57.718;12.134;2022-12-18T16:54:36;21.67;;;0.00;;
17710;SDS011;8975;57.718;12.134;2022-12-18T16:57:02;21.23;;;0.00;;